Allison, Illinois
Current Conditions -  °F | °C
As of 11:53 PM on Saturday 20 Dec 2014 (Local Time) from KLWV Reporting Station
Haze Haze  
Wind Chill: 25°   Ceiling: Unl
Heat Index: 25°   Visibility: 4mi
Dew Point: 23°   Wind: 3mph
Humidity: 92%   Direction: 80°E
Pressure: 30.3"   Gusts: NA
Location:  38.7501°N, 87.6141°W
Report Text: KLWV 210553Z AUTO 08003KT 4SM BR CLR M04/M05 A3030 RMK AO2 SLP265 I6002 T10391050 11006 21044 400221044 58002
Loading
Personal Weather Stations






























Interactive Weather Map New forecast layout! Learn more

10-Day Weather Forecast

Advertisements
Track Severe Weather on mobile